< < Back
Terminal Aerodrome Forecast


Current Version              Previous Versions:   1  2  3  4  5  6  7  8  9  

Terminal Aerodrome Forecast

799
FTUS42 KGSP 181700
TAFHKY
TAF
KHKY 181736Z 1818/1918 04003KT P6SM OVC180
     FM190300 02006KT P6SM -RA OVC045
     FM190500 03006KT 5SM RA BR OVC013
     FM190900 01008KT 4SM RA BR OVC008
     FM191500 03013KT P6SM -RA OVC007=

Latest METAR

988
SAUS70 KWBC 190200 RRK
MTRHKY
METAR KHKY 190153Z AUTO 00000KT 5SM -RA BR OVC080 09/08 A3026 RMK AO2
SLP238 P0004 T00890078


USA.gov is the U.S. government's official web portal to all federal, state and local government web resources and services.